Robert E. Mcallister — WDC8669 — position and weather

sailwx.info

Track history (hours):
 
Tides and Currents Weather Stations Pressure Air Temp Water Temp Dewpoint Dewpoint Depression Visibility Wind Speed Wind Dir Waves Ship Positions

Robert E. Mcallister

Owner: McAllister Towing & Transportation, Staten Island, NY. More information available from US FCC via Universal Licensing System and Coast Guard Vessel Documentation Center.

Last reported at 2018-Jan-21 11:27 UTC. Time now 2018-Jan-21 12:25 UTC.
Position N 39°43' W 075°31'.

; draft 4.3 m.

Type: Tug. MMSI: 367091120.

Date/timePositionNaut miles runAvg speedWind from/ knotsBaromVisibWave heightAir tempDewpointWater temp
2018-Jan-21 11:27N 39°43' W 075°31'0 1.0
2018-Jan-21 11:00N 39°43' W 075°31'0 0.0
2018-Jan-21 10:30N 39°43' W 075°31'0 0.0
2018-Jan-21 10:00N 39°43' W 075°31'3 5.1
2018-Jan-21 09:30N 39°45' W 075°29'4 4.6
2018-Jan-21 08:32N 39°48' W 075°25'0 0.0
2018-Jan-21 08:18N 39°48' W 075°25'0 0.5
2018-Jan-21 07:52N 39°48' W 075°25'1 3.5
2018-Jan-21 07:29N 39°47' W 075°27'2 3.7
2018-Jan-21 07:00N 39°49' W 075°25'2 3.6
2018-Jan-21 06:30N 39°50' W 075°23'0 0.0
2018-Jan-21 06:00N 39°50' W 075°23'0 0.0
2018-Jan-21 05:30N 39°50' W 075°23'0 0.0
2018-Jan-21 05:00N 39°50' W 075°23'0 0.0
2018-Jan-21 04:30N 39°50' W 075°23'0 0.0
2018-Jan-21 04:00N 39°50' W 075°23'0 0.0
2018-Jan-21 03:30N 39°50' W 075°23'0 0.0
2018-Jan-21 03:00N 39°50' W 075°23'0 0.0
2018-Jan-21 02:31N 39°50' W 075°23'0 0.0
2018-Jan-21 02:01N 39°50' W 075°23'0 0.0
2018-Jan-21 01:30N 39°50' W 075°23'0 0.0
2018-Jan-21 01:00N 39°50' W 075°23'0 0.0
2018-Jan-21 00:30N 39°50' W 075°23'0 0.0
2018-Jan-20 23:59N 39°50' W 075°23'0 0.0
2018-Jan-20 23:31N 39°50' W 075°23'0 0.0
2018-Jan-20 23:00N 39°50' W 075°23'0 0.0
2018-Jan-20 22:30N 39°50' W 075°23'0 0.0
2018-Jan-20 22:00N 39°50' W 075°23'0 0.0
2018-Jan-20 21:30N 39°50' W 075°23'0 0.0
2018-Jan-20 21:00N 39°50' W 075°23'0 0.0
2018-Jan-20 20:30N 39°50' W 075°23'0 0.0
2018-Jan-20 20:00N 39°50' W 075°23'0 0.0
2018-Jan-20 19:30N 39°50' W 075°23'0 0.0
2018-Jan-20 19:00N 39°50' W 075°23'0 0.0
2018-Jan-20 18:31N 39°50' W 075°23'5 9.4
2018-Jan-20 18:00N 39°47' W 075°28'4 8.7
2018-Jan-20 17:30N 39°43' W 075°31'0 0.1
2018-Jan-20 17:00N 39°43' W 075°31'0 0.9
2018-Jan-20 16:28N 39°43' W 075°30'9 3.2
2018-Jan-20 13:36N 39°34' W 075°33'1 5.2
2018-Jan-20 13:27N 39°35' W 075°33'4 7.6
2018-Jan-20 12:57N 39°39' W 075°34'4 9.6
2018-Jan-20 12:30N 39°42' W 075°31'0 0.5
2018-Jan-20 12:00N 39°43' W 075°31'0 0.0
2018-Jan-20 11:30N 39°43' W 075°31'0 0.0
2018-Jan-20 11:00N 39°43' W 075°31'0 0.0
2018-Jan-20 10:29N 39°43' W 075°31'0 0.0
2018-Jan-20 09:58N 39°43' W 075°31'0 0.2
2018-Jan-20 09:30N 39°42' W 075°31'510.0
2018-Jan-20 09:00N 39°47' W 075°28'4 9.1
2018-Jan-20 08:30N 39°50' W 075°23'0 0.1
2018-Jan-20 08:00N 39°50' W 075°23'0 0.0
2018-Jan-20 07:30N 39°50' W 075°23'0 0.0
2018-Jan-20 07:00N 39°50' W 075°23'0 0.0
2018-Jan-20 06:30N 39°50' W 075°23'0 0.0
2018-Jan-20 06:00N 39°50' W 075°23'0 0.0
2018-Jan-20 05:30N 39°50' W 075°23'0 0.0
2018-Jan-20 05:00N 39°50' W 075°23'0 0.0
2018-Jan-20 04:30N 39°50' W 075°23'0 0.0
2018-Jan-20 04:00N 39°50' W 075°23'0 0.0
2018-Jan-20 03:30N 39°50' W 075°23'0 0.0
2018-Jan-20 03:01N 39°50' W 075°23'0 0.0
2018-Jan-20 02:30N 39°50' W 075°23'0 0.0
2018-Jan-20 02:01N 39°50' W 075°23'4 7.3
2018-Jan-20 01:31N 39°51' W 075°19'4 8.5
2018-Jan-20 01:00N 39°52' W 075°13'0 0.0
2018-Jan-20 00:30N 39°52' W 075°13'2 3.1
2018-Jan-20 00:00N 39°53' W 075°12'1 1.2
2018-Jan-19 23:30N 39°54' W 075°12'0 0.0
2018-Jan-19 23:00N 39°54' W 075°12'0 0.0
2018-Jan-19 22:30N 39°54' W 075°12'0 0.0
2018-Jan-19 22:00N 39°54' W 075°12'0 0.0
2018-Jan-19 21:30N 39°54' W 075°12'0 0.0
2018-Jan-19 21:00N 39°54' W 075°12'0 0.0
2018-Jan-19 20:30N 39°54' W 075°12'0 0.0
2018-Jan-19 20:00N 39°54' W 075°12'0 0.0
2018-Jan-19 19:30N 39°54' W 075°12'0 0.0
2018-Jan-19 19:00N 39°54' W 075°12'0 0.0
2018-Jan-19 18:30N 39°54' W 075°12'0 0.0
2018-Jan-19 18:00N 39°54' W 075°12'0 0.0
2018-Jan-19 17:31N 39°54' W 075°12'0 0.0
2018-Jan-19 17:00N 39°54' W 075°12'0 0.0
2018-Jan-19 16:31N 39°54' W 075°12'0 0.0
2018-Jan-19 16:00N 39°54' W 075°12'0 0.0
2018-Jan-19 15:30N 39°54' W 075°12'0 0.0
2018-Jan-19 15:00N 39°54' W 075°12'0 0.0
2018-Jan-19 14:30N 39°54' W 075°12'0 0.0
2018-Jan-19 14:00N 39°54' W 075°12'0 0.0
2018-Jan-19 13:30N 39°54' W 075°12'0 0.0
2018-Jan-19 13:00N 39°54' W 075°12'0 0.0
2018-Jan-19 12:31N 39°54' W 075°12'0 0.0
2018-Jan-19 12:00N 39°54' W 075°12'0 0.0
2018-Jan-19 11:30N 39°54' W 075°12'0 0.0
2018-Jan-19 11:00N 39°54' W 075°12'0 0.0
2018-Jan-19 10:30N 39°54' W 075°12'0 0.0
2018-Jan-19 10:01N 39°54' W 075°12'0 0.0
2018-Jan-19 09:31N 39°54' W 075°12'0 0.0
2018-Jan-19 09:00N 39°54' W 075°12'0 0.0
2018-Jan-19 08:30N 39°54' W 075°12'0 0.0
2018-Jan-19 08:00N 39°54' W 075°12'0 0.0
2018-Jan-19 07:30N 39°54' W 075°12'0 0.0
2018-Jan-19 07:01N 39°54' W 075°12'0 0.0
2018-Jan-19 06:31N 39°54' W 075°12'0 0.0
2018-Jan-19 06:00N 39°54' W 075°12'0 0.0
2018-Jan-19 05:30N 39°54' W 075°12'0 0.0
2018-Jan-19 05:00N 39°54' W 075°12'0 0.0
2018-Jan-19 04:30N 39°54' W 075°12'0 0.0
2018-Jan-19 04:00N 39°54' W 075°12'0 0.0
2018-Jan-19 03:30N 39°54' W 075°12'0 0.0
2018-Jan-19 03:00N 39°54' W 075°12'0 0.0
2018-Jan-19 02:30N 39°54' W 075°12'0 0.0
2018-Jan-19 02:00N 39°54' W 075°12'0 0.0
2018-Jan-19 01:30N 39°54' W 075°12'0 0.0
2018-Jan-19 01:00N 39°54' W 075°12'0 0.0
2018-Jan-19 00:29N 39°54' W 075°12'0 0.0
2018-Jan-19 00:00N 39°54' W 075°12'3 6.1
2018-Jan-18 23:30N 39°54' W 075°08'0 0.2
2018-Jan-18 23:00N 39°54' W 075°08'3 6.3
2018-Jan-18 22:30N 39°54' W 075°12'0 0.4
2018-Jan-18 22:00N 39°54' W 075°12'0 0.0
2018-Jan-18 21:30N 39°54' W 075°12'0 0.0
2018-Jan-18 21:00N 39°54' W 075°12'0 0.0
2018-Jan-18 20:07N 39°54' W 075°12'0 0.0
2018-Jan-18 20:01N 39°54' W 075°12'0 0.2
2018-Jan-18 19:30N 39°54' W 075°12'2 3.8
2018-Jan-18 19:01N 39°52' W 075°13'0 0.0
2018-Jan-18 18:30N 39°52' W 075°13'0 0.0
2018-Jan-18 18:01N 39°52' W 075°13'0 0.2
2018-Jan-18 17:30N 39°52' W 075°13'1 2.4
2018-Jan-18 17:00N 39°51' W 075°14'2 4.2
2018-Jan-18 16:31N 39°53' W 075°12'1 2.4
2018-Jan-18 16:00N 39°54' W 075°12'0 0.0
2018-Jan-18 15:31N 39°54' W 075°12'0 0.0
2018-Jan-18 15:01N 39°54' W 075°12'3 5.9
2018-Jan-18 14:30N 39°54' W 075°08'2 4.2
2018-Jan-18 14:01N 39°56' W 075°08'0 0.3
2018-Jan-18 13:30N 39°56' W 075°08'3 5.9
2018-Jan-18 13:00N 39°53' W 075°09'2 5.0
2018-Jan-18 12:31N 39°54' W 075°12'0 0.0
2018-Jan-18 12:01N 39°54' W 075°12'0 0.0
2018-Jan-18 11:30N 39°54' W 075°12'0 0.0
2018-Jan-18 11:00N 39°54' W 075°12'0 0.0
2018-Jan-18 10:31N 39°54' W 075°12'0 0.0
2018-Jan-18 10:01N 39°54' W 075°12'0 0.0
2018-Jan-18 09:31N 39°54' W 075°12'0 0.0
2018-Jan-18 09:00N 39°54' W 075°12'0 0.0
2018-Jan-18 08:31N 39°54' W 075°12'0 0.0
2018-Jan-18 08:01N 39°54' W 075°12'0 0.0
2018-Jan-18 07:31N 39°54' W 075°12'0 0.0
2018-Jan-18 07:00N 39°54' W 075°12'1 1.1
2018-Jan-18 06:30N 39°53' W 075°12'2 3.4
2018-Jan-18 06:01N 39°52' W 075°13'0 0.4
2018-Jan-18 05:31N 39°52' W 075°13'0 0.0
2018-Jan-18 05:01N 39°52' W 075°13'0 0.0
2018-Jan-18 04:31N 39°52' W 075°13'2 3.8
2018-Jan-18 04:00N 39°54' W 075°12'0 0.0
2018-Jan-18 03:30N 39°54' W 075°12'0 0.0
2018-Jan-18 03:00N 39°54' W 075°12'0 0.0
2018-Jan-18 02:30N 39°54' W 075°12'0 0.0
2018-Jan-18 02:00N 39°54' W 075°12'0 0.0
2018-Jan-18 01:30N 39°54' W 075°12'0 0.0
2018-Jan-18 01:00N 39°54' W 075°12'0 0.0
2018-Jan-18 00:00N 39°54' W 075°12'0 0.0
2018-Jan-17 23:58N 39°54' W 075°12'  
2018-Jan-12 15:00N 39°35' W 075°36'1 2.8
2018-Jan-12 14:30N 39°34' W 075°34'3 6.6
2018-Jan-12 14:00N 39°38' W 075°35'510.2
2018-Jan-12 13:30N 39°42' W 075°31'5 9.5
2018-Jan-12 13:00N 39°46' W 075°28'5 9.3
2018-Jan-12 12:30N 39°49' W 075°24'1 1.5
2018-Jan-12 12:00N 39°50' W 075°23'0 0.0
2018-Jan-12 11:30N 39°50' W 075°23'0 0.0
2018-Jan-12 11:00N 39°50' W 075°23'0 0.0
2018-Jan-12 10:30N 39°50' W 075°23'0 0.0
2018-Jan-12 10:00N 39°50' W 075°23'0 0.0
2018-Jan-12 09:30N 39°50' W 075°23'0 0.0
2018-Jan-12 09:00N 39°50' W 075°23'0 0.0
2018-Jan-12 08:30N 39°50' W 075°23'0 0.0
2018-Jan-12 08:01N 39°50' W 075°23'0 0.0
2018-Jan-12 07:30N 39°50' W 075°23'0 0.0
2018-Jan-12 06:59N 39°50' W 075°23'0 0.0
2018-Jan-12 06:30N 39°50' W 075°23'0 0.0
2018-Jan-12 06:00N 39°50' W 075°23'1 2.4
2018-Jan-12 05:30N 39°49' W 075°24'0 0.0
2018-Jan-12 05:00N 39°49' W 075°24'2 3.5
2018-Jan-12 04:30N 39°48' W 075°26'5 9.9
2018-Jan-12 04:01N 39°44' W 075°30'5 9.9
2018-Jan-12 03:31N 39°39' W 075°33'4 8.2
2018-Jan-12 03:00N 39°35' W 075°34'1 1.9
2018-Jan-12 02:30N 39°34' W 075°34'0 0.4
2018-Jan-12 02:00N 39°35' W 075°34'1 1.7
2018-Jan-12 01:30N 39°35' W 075°35'2 3.9
2018-Jan-12 01:00N 39°34' W 075°33'4 8.1
2018-Jan-12 00:31N 39°38' W 075°34'4 8.8
2018-Jan-12 00:00N 39°42' W 075°31'4 8.4
2018-Jan-11 23:30N 39°45' W 075°29'3 6.8
2018-Jan-11 23:00N 39°48' W 075°26'3 5.8
2018-Jan-11 22:30N 39°50' W 075°23'0 0.0
2018-Jan-11 22:00N 39°50' W 075°23'0 0.0
2018-Jan-11 21:31N 39°50' W 075°23'0 0.0
2018-Jan-11 21:00N 39°50' W 075°23'2 4.9
2018-Jan-11 20:30N 39°51' W 075°20'0 0.0
2018-Jan-11 20:00N 39°51' W 075°20'0 0.3
2018-Jan-11 19:30N 39°51' W 075°21'1 2.0
2018-Jan-11 19:00N 39°51' W 075°19'5 9.9
2018-Jan-11 18:30N 39°52' W 075°13'2 3.6
2018-Jan-11 18:00N 39°54' W 075°12'0 0.6
2018-Jan-11 17:30N 39°54' W 075°12'1 1.1
2018-Jan-11 17:00N 39°53' W 075°12'5 9.2
2018-Jan-11 16:30N 39°51' W 075°17'4 8.9
2018-Jan-11 16:01N 39°50' W 075°23'0 0.5
2018-Jan-11 15:31N 39°50' W 075°23'0 0.0
2018-Jan-11 15:00N 39°50' W 075°23'0 0.0
2018-Jan-11 14:30N 39°50' W 075°23'0 0.0
2018-Jan-11 14:00N 39°50' W 075°23'0 0.0
2018-Jan-11 13:31N 39°50' W 075°23'0 0.0
2018-Jan-11 13:00N 39°50' W 075°23'0 0.0
2018-Jan-11 12:31N 39°50' W 075°23'0 0.0
2018-Jan-11 12:00N 39°50' W 075°23'0 0.0
2018-Jan-11 11:30N 39°50' W 075°23'  
Track history (hours):
 
Tides and Currents Weather Stations Pressure Air Temp Water Temp Dewpoint Dewpoint Depression Visibility Wind Speed Wind Dir Waves Ship Positions

Robert E. Mcallister

Owner: McAllister Towing & Transportation, Staten Island, NY. More information available from US FCC via Universal Licensing System and Coast Guard Vessel Documentation Center.

Last reported at 2018-Jan-21 11:27 UTC. Time now 2018-Jan-21 12:25 UTC.
Position N 39°43' W 075°31'.

; draft 4.3 m.

Type: Tug. MMSI: 367091120.

Date/timePositionNaut miles runAvg speedWind from/ knotsBaromVisibWave heightAir tempDewpointWater temp
2018-Jan-21 11:27N 39°43' W 075°31'0 1.0
2018-Jan-21 11:00N 39°43' W 075°31'0 0.0
2018-Jan-21 10:30N 39°43' W 075°31'0 0.0
2018-Jan-21 10:00N 39°43' W 075°31'3 5.1
2018-Jan-21 09:30N 39°45' W 075°29'4 4.6
2018-Jan-21 08:32N 39°48' W 075°25'0 0.0
2018-Jan-21 08:18N 39°48' W 075°25'0 0.5
2018-Jan-21 07:52N 39°48' W 075°25'1 3.5
2018-Jan-21 07:29N 39°47' W 075°27'2 3.7
2018-Jan-21 07:00N 39°49' W 075°25'2 3.6
2018-Jan-21 06:30N 39°50' W 075°23'0 0.0
2018-Jan-21 06:00N 39°50' W 075°23'0 0.0
2018-Jan-21 05:30N 39°50' W 075°23'0 0.0
2018-Jan-21 05:00N 39°50' W 075°23'0 0.0
2018-Jan-21 04:30N 39°50' W 075°23'0 0.0
2018-Jan-21 04:00N 39°50' W 075°23'0 0.0
2018-Jan-21 03:30N 39°50' W 075°23'0 0.0
2018-Jan-21 03:00N 39°50' W 075°23'0 0.0
2018-Jan-21 02:31N 39°50' W 075°23'0 0.0
2018-Jan-21 02:01N 39°50' W 075°23'0 0.0
2018-Jan-21 01:30N 39°50' W 075°23'0 0.0
2018-Jan-21 01:00N 39°50' W 075°23'0 0.0
2018-Jan-21 00:30N 39°50' W 075°23'0 0.0
2018-Jan-20 23:59N 39°50' W 075°23'0 0.0
2018-Jan-20 23:31N 39°50' W 075°23'0 0.0
2018-Jan-20 23:00N 39°50' W 075°23'0 0.0
2018-Jan-20 22:30N 39°50' W 075°23'0 0.0
2018-Jan-20 22:00N 39°50' W 075°23'0 0.0
2018-Jan-20 21:30N 39°50' W 075°23'0 0.0
2018-Jan-20 21:00N 39°50' W 075°23'0 0.0
2018-Jan-20 20:30N 39°50' W 075°23'0 0.0
2018-Jan-20 20:00N 39°50' W 075°23'0 0.0
2018-Jan-20 19:30N 39°50' W 075°23'0 0.0
2018-Jan-20 19:00N 39°50' W 075°23'0 0.0
2018-Jan-20 18:31N 39°50' W 075°23'5 9.4
2018-Jan-20 18:00N 39°47' W 075°28'4 8.7
2018-Jan-20 17:30N 39°43' W 075°31'0 0.1
2018-Jan-20 17:00N 39°43' W 075°31'0 0.9
2018-Jan-20 16:28N 39°43' W 075°30'9 3.2
2018-Jan-20 13:36N 39°34' W 075°33'1 5.2
2018-Jan-20 13:27N 39°35' W 075°33'4 7.6
2018-Jan-20 12:57N 39°39' W 075°34'4 9.6
2018-Jan-20 12:30N 39°42' W 075°31'0 0.5
2018-Jan-20 12:00N 39°43' W 075°31'0 0.0
2018-Jan-20 11:30N 39°43' W 075°31'0 0.0
2018-Jan-20 11:00N 39°43' W 075°31'0 0.0
2018-Jan-20 10:29N 39°43' W 075°31'0 0.0
2018-Jan-20 09:58N 39°43' W 075°31'0 0.2
2018-Jan-20 09:30N 39°42' W 075°31'510.0
2018-Jan-20 09:00N 39°47' W 075°28'4 9.1
2018-Jan-20 08:30N 39°50' W 075°23'0 0.1
2018-Jan-20 08:00N 39°50' W 075°23'0 0.0
2018-Jan-20 07:30N 39°50' W 075°23'0 0.0
2018-Jan-20 07:00N 39°50' W 075°23'0 0.0
2018-Jan-20 06:30N 39°50' W 075°23'0 0.0
2018-Jan-20 06:00N 39°50' W 075°23'0 0.0
2018-Jan-20 05:30N 39°50' W 075°23'0 0.0
2018-Jan-20 05:00N 39°50' W 075°23'0 0.0
2018-Jan-20 04:30N 39°50' W 075°23'0 0.0
2018-Jan-20 04:00N 39°50' W 075°23'0 0.0
2018-Jan-20 03:30N 39°50' W 075°23'0 0.0
2018-Jan-20 03:01N 39°50' W 075°23'0 0.0
2018-Jan-20 02:30N 39°50' W 075°23'0 0.0
2018-Jan-20 02:01N 39°50' W 075°23'4 7.3
2018-Jan-20 01:31N 39°51' W 075°19'4 8.5
2018-Jan-20 01:00N 39°52' W 075°13'0 0.0
2018-Jan-20 00:30N 39°52' W 075°13'2 3.1
2018-Jan-20 00:00N 39°53' W 075°12'1 1.2
2018-Jan-19 23:30N 39°54' W 075°12'0 0.0
2018-Jan-19 23:00N 39°54' W 075°12'0 0.0
2018-Jan-19 22:30N 39°54' W 075°12'0 0.0
2018-Jan-19 22:00N 39°54' W 075°12'0 0.0
2018-Jan-19 21:30N 39°54' W 075°12'0 0.0
2018-Jan-19 21:00N 39°54' W 075°12'0 0.0
2018-Jan-19 20:30N 39°54' W 075°12'0 0.0
2018-Jan-19 20:00N 39°54' W 075°12'0 0.0
2018-Jan-19 19:30N 39°54' W 075°12'0 0.0
2018-Jan-19 19:00N 39°54' W 075°12'0 0.0
2018-Jan-19 18:30N 39°54' W 075°12'0 0.0
2018-Jan-19 18:00N 39°54' W 075°12'0 0.0
2018-Jan-19 17:31N 39°54' W 075°12'0 0.0
2018-Jan-19 17:00N 39°54' W 075°12'0 0.0
2018-Jan-19 16:31N 39°54' W 075°12'0 0.0
2018-Jan-19 16:00N 39°54' W 075°12'0 0.0
2018-Jan-19 15:30N 39°54' W 075°12'0 0.0
2018-Jan-19 15:00N 39°54' W 075°12'0 0.0
2018-Jan-19 14:30N 39°54' W 075°12'0 0.0
2018-Jan-19 14:00N 39°54' W 075°12'0 0.0
2018-Jan-19 13:30N 39°54' W 075°12'0 0.0
2018-Jan-19 13:00N 39°54' W 075°12'0 0.0
2018-Jan-19 12:31N 39°54' W 075°12'0 0.0
2018-Jan-19 12:00N 39°54' W 075°12'0 0.0
2018-Jan-19 11:30N 39°54' W 075°12'0 0.0
2018-Jan-19 11:00N 39°54' W 075°12'0 0.0
2018-Jan-19 10:30N 39°54' W 075°12'0 0.0
2018-Jan-19 10:01N 39°54' W 075°12'0 0.0
2018-Jan-19 09:31N 39°54' W 075°12'0 0.0
2018-Jan-19 09:00N 39°54' W 075°12'0 0.0
2018-Jan-19 08:30N 39°54' W 075°12'0 0.0
2018-Jan-19 08:00N 39°54' W 075°12'0 0.0
2018-Jan-19 07:30N 39°54' W 075°12'0 0.0
2018-Jan-19 07:01N 39°54' W 075°12'0 0.0
2018-Jan-19 06:31N 39°54' W 075°12'0 0.0
2018-Jan-19 06:00N 39°54' W 075°12'0 0.0
2018-Jan-19 05:30N 39°54' W 075°12'0 0.0
2018-Jan-19 05:00N 39°54' W 075°12'0 0.0
2018-Jan-19 04:30N 39°54' W 075°12'0 0.0
2018-Jan-19 04:00N 39°54' W 075°12'0 0.0
2018-Jan-19 03:30N 39°54' W 075°12'0 0.0
2018-Jan-19 03:00N 39°54' W 075°12'0 0.0
2018-Jan-19 02:30N 39°54' W 075°12'0 0.0
2018-Jan-19 02:00N 39°54' W 075°12'0 0.0
2018-Jan-19 01:30N 39°54' W 075°12'0 0.0
2018-Jan-19 01:00N 39°54' W 075°12'0 0.0
2018-Jan-19 00:29N 39°54' W 075°12'0 0.0
2018-Jan-19 00:00N 39°54' W 075°12'3 6.1
2018-Jan-18 23:30N 39°54' W 075°08'0 0.2
2018-Jan-18 23:00N 39°54' W 075°08'3 6.3
2018-Jan-18 22:30N 39°54' W 075°12'0 0.4
2018-Jan-18 22:00N 39°54' W 075°12'0 0.0
2018-Jan-18 21:30N 39°54' W 075°12'0 0.0
2018-Jan-18 21:00N 39°54' W 075°12'0 0.0
2018-Jan-18 20:07N 39°54' W 075°12'0 0.0
2018-Jan-18 20:01N 39°54' W 075°12'0 0.2
2018-Jan-18 19:30N 39°54' W 075°12'2 3.8
2018-Jan-18 19:01N 39°52' W 075°13'0 0.0
2018-Jan-18 18:30N 39°52' W 075°13'0 0.0
2018-Jan-18 18:01N 39°52' W 075°13'0 0.2
2018-Jan-18 17:30N 39°52' W 075°13'1 2.4
2018-Jan-18 17:00N 39°51' W 075°14'2 4.2
2018-Jan-18 16:31N 39°53' W 075°12'1 2.4
2018-Jan-18 16:00N 39°54' W 075°12'0 0.0
2018-Jan-18 15:31N 39°54' W 075°12'0 0.0
2018-Jan-18 15:01N 39°54' W 075°12'3 5.9
2018-Jan-18 14:30N 39°54' W 075°08'2 4.2
2018-Jan-18 14:01N 39°56' W 075°08'0 0.3
2018-Jan-18 13:30N 39°56' W 075°08'3 5.9
2018-Jan-18 13:00N 39°53' W 075°09'2 5.0
2018-Jan-18 12:31N 39°54' W 075°12'0 0.0
2018-Jan-18 12:01N 39°54' W 075°12'0 0.0
2018-Jan-18 11:30N 39°54' W 075°12'0 0.0
2018-Jan-18 11:00N 39°54' W 075°12'0 0.0
2018-Jan-18 10:31N 39°54' W 075°12'0 0.0
2018-Jan-18 10:01N 39°54' W 075°12'0 0.0
2018-Jan-18 09:31N 39°54' W 075°12'0 0.0
2018-Jan-18 09:00N 39°54' W 075°12'0 0.0
2018-Jan-18 08:31N 39°54' W 075°12'0 0.0
2018-Jan-18 08:01N 39°54' W 075°12'0 0.0
2018-Jan-18 07:31N 39°54' W 075°12'0 0.0
2018-Jan-18 07:00N 39°54' W 075°12'1 1.1
2018-Jan-18 06:30N 39°53' W 075°12'2 3.4
2018-Jan-18 06:01N 39°52' W 075°13'0 0.4
2018-Jan-18 05:31N 39°52' W 075°13'0 0.0
2018-Jan-18 05:01N 39°52' W 075°13'0 0.0
2018-Jan-18 04:31N 39°52' W 075°13'2 3.8
2018-Jan-18 04:00N 39°54' W 075°12'0 0.0
2018-Jan-18 03:30N 39°54' W 075°12'0 0.0
2018-Jan-18 03:00N 39°54' W 075°12'0 0.0
2018-Jan-18 02:30N 39°54' W 075°12'0 0.0
2018-Jan-18 02:00N 39°54' W 075°12'0 0.0
2018-Jan-18 01:30N 39°54' W 075°12'0 0.0
2018-Jan-18 01:00N 39°54' W 075°12'0 0.0
2018-Jan-18 00:00N 39°54' W 075°12'0 0.0
2018-Jan-17 23:58N 39°54' W 075°12'  
2018-Jan-12 15:00N 39°35' W 075°36'1 2.8
2018-Jan-12 14:30N 39°34' W 075°34'3 6.6
2018-Jan-12 14:00N 39°38' W 075°35'510.2
2018-Jan-12 13:30N 39°42' W 075°31'5 9.5
2018-Jan-12 13:00N 39°46' W 075°28'5 9.3
2018-Jan-12 12:30N 39°49' W 075°24'1 1.5
2018-Jan-12 12:00N 39°50' W 075°23'0 0.0
2018-Jan-12 11:30N 39°50' W 075°23'0 0.0
2018-Jan-12 11:00N 39°50' W 075°23'0 0.0
2018-Jan-12 10:30N 39°50' W 075°23'0 0.0
2018-Jan-12 10:00N 39°50' W 075°23'0 0.0
2018-Jan-12 09:30N 39°50' W 075°23'0 0.0
2018-Jan-12 09:00N 39°50' W 075°23'0 0.0
2018-Jan-12 08:30N 39°50' W 075°23'0 0.0
2018-Jan-12 08:01N 39°50' W 075°23'0 0.0
2018-Jan-12 07:30N 39°50' W 075°23'0 0.0
2018-Jan-12 06:59N 39°50' W 075°23'0 0.0
2018-Jan-12 06:30N 39°50' W 075°23'0 0.0
2018-Jan-12 06:00N 39°50' W 075°23'1 2.4
2018-Jan-12 05:30N 39°49' W 075°24'0 0.0
2018-Jan-12 05:00N 39°49' W 075°24'2 3.5
2018-Jan-12 04:30N 39°48' W 075°26'5 9.9
2018-Jan-12 04:01N 39°44' W 075°30'5 9.9
2018-Jan-12 03:31N 39°39' W 075°33'4 8.2
2018-Jan-12 03:00N 39°35' W 075°34'1 1.9
2018-Jan-12 02:30N 39°34' W 075°34'0 0.4
2018-Jan-12 02:00N 39°35' W 075°34'1 1.7
2018-Jan-12 01:30N 39°35' W 075°35'2 3.9
2018-Jan-12 01:00N 39°34' W 075°33'4 8.1
2018-Jan-12 00:31N 39°38' W 075°34'4 8.8
2018-Jan-12 00:00N 39°42' W 075°31'4 8.4
2018-Jan-11 23:30N 39°45' W 075°29'3 6.8
2018-Jan-11 23:00N 39°48' W 075°26'3 5.8
2018-Jan-11 22:30N 39°50' W 075°23'0 0.0
2018-Jan-11 22:00N 39°50' W 075°23'0 0.0
2018-Jan-11 21:31N 39°50' W 075°23'0 0.0
2018-Jan-11 21:00N 39°50' W 075°23'2 4.9
2018-Jan-11 20:30N 39°51' W 075°20'0 0.0
2018-Jan-11 20:00N 39°51' W 075°20'0 0.3
2018-Jan-11 19:30N 39°51' W 075°21'1 2.0
2018-Jan-11 19:00N 39°51' W 075°19'5 9.9
2018-Jan-11 18:30N 39°52' W 075°13'2 3.6
2018-Jan-11 18:00N 39°54' W 075°12'0 0.6
2018-Jan-11 17:30N 39°54' W 075°12'1 1.1
2018-Jan-11 17:00N 39°53' W 075°12'5 9.2
2018-Jan-11 16:30N 39°51' W 075°17'4 8.9
2018-Jan-11 16:01N 39°50' W 075°23'0 0.5
2018-Jan-11 15:31N 39°50' W 075°23'0 0.0
2018-Jan-11 15:00N 39°50' W 075°23'0 0.0
2018-Jan-11 14:30N 39°50' W 075°23'0 0.0
2018-Jan-11 14:00N 39°50' W 075°23'0 0.0
2018-Jan-11 13:31N 39°50' W 075°23'0 0.0
2018-Jan-11 13:00N 39°50' W 075°23'0 0.0
2018-Jan-11 12:31N 39°50' W 075°23'0 0.0
2018-Jan-11 12:00N 39°50' W 075°23'0 0.0
2018-Jan-11 11:30N 39°50' W 075°23'  

Dump ship's entire track history